Time;durP1;ratioP1;P1;durP2;ratioP2;P2;SDS_P1;SDS_P2;PMS_P1;PMS_P2;Temp;Humidity;BMP_temperature;BMP_pressure;BME280_temperature;BME280_humidity;BME280_pressure;Samples;Min_cycle;Max_cycle;Signal;HPM_P1;HPM_P2
2023/03/13 00:02:35;;;;;;;2.80;2.13;;;;;;;;;;6241383;28;20088;-78
2023/03/13 00:05:36;;;;;;;1.07;1.07;;;;;;;;;;6244064;28;20029;-78
2023/03/13 00:08:36;;;;;;;0.67;0.67;;;;;;;;;;6243841;28;20068;-78
2023/03/13 00:11:36;;;;;;;0.80;0.80;;;;;;;;;;6240728;28;20021;-78
2023/03/13 00:14:37;;;;;;;1.07;1.07;;;;;;;;;;6239744;28;20013;-79
2023/03/13 00:17:38;;;;;;;0.55;0.55;;;;;;;;;;6230875;28;20475;-78
2023/03/13 00:20:38;;;;;;;0.30;0.30;;;;;;;;;;6249151;28;20017;-78
2023/03/13 00:23:38;;;;;;;1.00;0.93;;;;;;;;;;6252180;28;20420;-78
2023/03/13 00:26:38;;;;;;;0.60;0.60;;;;;;;;;;6248510;28;20439;-79
2023/03/13 00:29:39;;;;;;;0.52;0.52;;;;;;;;;;6247573;28;20494;-77
2023/03/13 00:32:40;;;;;;;1.03;1.03;;;;;;;;;;6247147;28;20025;-78
2023/03/13 00:35:40;;;;;;;1.10;1.10;;;;;;;;;;6247204;28;20017;-78
2023/03/13 00:38:40;;;;;;;0.63;0.63;;;;;;;;;;6247784;28;20010;-78
2023/03/13 00:41:40;;;;;;;3.73;1.20;;;;;;;;;;6247703;28;20049;-79
2023/03/13 00:44:41;;;;;;;0.30;0.30;;;;;;;;;;6247534;28;20021;-78
2023/03/13 00:47:41;;;;;;;0.80;0.80;;;;;;;;;;6248120;28;20084;-78
2023/03/13 00:50:41;;;;;;;7.80;4.87;;;;;;;;;;6246689;28;20045;-79
2023/03/13 00:53:41;;;;;;;15.57;6.17;;;;;;;;;;6247470;28;20403;-78
2023/03/13 00:56:42;;;;;;;11.53;5.60;;;;;;;;;;6247565;28;20045;-78
2023/03/13 00:59:42;;;;;;;10.00;5.45;;;;;;;;;;6247551;28;20013;-78
2023/03/13 01:02:42;;;;;;;11.47;6.10;;;;;;;;;;6247552;28;20021;-79
2023/03/13 01:05:43;;;;;;;9.47;4.77;;;;;;;;;;6246902;28;20075;-78
2023/03/13 01:08:43;;;;;;;11.43;4.73;;;;;;;;;;6247420;28;20030;-79
2023/03/13 01:11:45;;;;;;;11.57;5.90;;;;;;;;;;6244217;28;20339;-78
2023/03/13 01:14:48;;;;;;;9.10;3.92;;;;;;;;;;6246838;28;20018;-78
2023/03/13 01:17:48;;;;;;;17.98;6.00;;;;;;;;;;6240972;28;20071;-79
2023/03/13 01:20:48;;;;;;;17.83;7.17;;;;;;;;;;6245939;28;20021;-79
2023/03/13 01:23:49;;;;;;;15.45;6.40;;;;;;;;;;6237716;28;20017;-78
2023/03/13 01:26:49;;;;;;;13.03;4.43;;;;;;;;;;6236987;28;20502;-79
2023/03/13 01:29:49;;;;;;;12.68;5.63;;;;;;;;;;6243126;28;20010;-79
2023/03/13 01:32:49;;;;;;;9.45;4.85;;;;;;;;;;6247622;28;20021;-79
2023/03/13 01:35:50;;;;;;;9.93;5.30;;;;;;;;;;6246728;28;20488;-78
2023/03/13 01:38:51;;;;;;;6.13;3.47;;;;;;;;;;6228553;28;20023;-79
2023/03/13 01:41:51;;;;;;;9.40;4.45;;;;;;;;;;6245874;28;20108;-79
2023/03/13 01:44:53;;;;;;;17.07;7.77;;;;;;;;;;6246907;28;20369;-79
2023/03/13 01:47:53;;;;;;;19.15;7.85;;;;;;;;;;6245824;28;20033;-79
2023/03/13 01:50:54;;;;;;;20.60;9.87;;;;;;;;;;6222991;28;20041;-79
2023/03/13 01:54:14;;;;;;;14.00;5.63;;;;;;;;;;6244379;28;20542;-79
2023/03/13 01:57:22;;;;;;;9.55;4.88;;;;;;;;;;6245524;28;20505;-80
2023/03/13 02:00:31;;;;;;;10.35;6.20;;;;;;;;;;6246856;28;20450;-79
2023/03/13 02:03:32;;;;;;;9.02;5.97;;;;;;;;;;6246852;28;20053;-79
2023/03/13 02:06:35;;;;;;;8.53;4.67;;;;;;;;;;6243779;28;20573;-80
2023/03/13 02:09:38;;;;;;;11.73;5.40;;;;;;;;;;6245243;28;20081;-80
2023/03/13 02:12:39;;;;;;;13.20;6.43;;;;;;;;;;6240291;28;20391;-76
2023/03/13 02:15:39;;;;;;;9.43;6.25;;;;;;;;;;6225031;28;20131;-79
2023/03/13 02:18:40;;;;;;;13.80;6.47;;;;;;;;;;6243317;28;20150;-79
2023/03/13 02:21:55;;;;;;;10.77;5.87;;;;;;;;;;6243036;28;20028;-78
2023/03/13 02:24:55;;;;;;;9.65;5.70;;;;;;;;;;6245156;28;20100;-80
2023/03/13 02:27:59;;;;;;;13.02;5.95;;;;;;;;;;6247549;28;20044;-78
2023/03/13 02:31:00;;;;;;;13.38;6.18;;;;;;;;;;6249162;28;20537;-79
2023/03/13 02:34:01;;;;;;;16.00;6.77;;;;;;;;;;6244455;28;20013;-79
2023/03/13 02:37:04;;;;;;;16.05;7.90;;;;;;;;;;6244673;28;20348;-80
2023/03/13 02:40:08;;;;;;;11.90;6.95;;;;;;;;;;6245655;28;20024;-79
2023/03/13 02:43:14;;;;;;;14.60;6.75;;;;;;;;;;6245270;28;20021;-78
2023/03/13 02:46:18;;;;;;;11.55;6.30;;;;;;;;;;6240618;28;20384;-79
2023/03/13 02:49:22;;;;;;;9.40;5.88;;;;;;;;;;6248183;28;20490;-79
2023/03/13 02:52:25;;;;;;;13.15;5.50;;;;;;;;;;6244077;28;20480;-80
2023/03/13 02:55:29;;;;;;;10.88;5.63;;;;;;;;;;6244987;28;20108;-80
2023/03/13 02:58:42;;;;;;;11.40;6.25;;;;;;;;;;6244478;28;20022;-78
2023/03/13 03:01:42;;;;;;;13.23;6.63;;;;;;;;;;6241051;28;20028;-78
2023/03/13 03:04:42;;;;;;;13.80;5.87;;;;;;;;;;6244684;28;20368;-80
2023/03/13 03:07:42;;;;;;;12.97;7.27;;;;;;;;;;6240469;28;20024;-79
2023/03/13 03:10:42;;;;;;;8.43;5.27;;;;;;;;;;6244493;28;20061;-79
2023/03/13 03:13:43;;;;;;;11.03;6.73;;;;;;;;;;6227336;28;20442;-79
2023/03/13 03:16:43;;;;;;;13.23;6.13;;;;;;;;;;6240050;28;20129;-79
2023/03/13 03:19:45;;;;;;;14.17;6.60;;;;;;;;;;6244756;28;20018;-80
2023/03/13 03:22:45;;;;;;;12.27;6.15;;;;;;;;;;6244390;28;20490;-80
2023/03/13 03:25:45;;;;;;;13.20;5.93;;;;;;;;;;6235638;28;20025;-78
2023/03/13 03:28:45;;;;;;;12.67;6.53;;;;;;;;;;6244207;28;20029;-79
2023/03/13 03:31:46;;;;;;;10.33;4.37;;;;;;;;;;6244387;28;20056;-79
2023/03/13 03:34:46;;;;;;;12.20;6.50;;;;;;;;;;6244988;28;20038;-79
2023/03/13 03:37:46;;;;;;;11.10;6.47;;;;;;;;;;6244139;28;20029;-80
2023/03/13 03:40:46;;;;;;;10.18;5.97;;;;;;;;;;6244414;28;20064;-79
2023/03/13 03:43:47;;;;;;;11.27;5.95;;;;;;;;;;6244092;28;20018;-78
2023/03/13 03:46:47;;;;;;;15.43;6.87;;;;;;;;;;6244910;28;20104;-79
2023/03/13 03:49:47;;;;;;;13.23;6.55;;;;;;;;;;6244024;28;20018;-79
2023/03/13 03:52:47;;;;;;;10.77;6.97;;;;;;;;;;6248428;28;20115;-79
2023/03/13 03:55:47;;;;;;;16.20;7.40;;;;;;;;;;6248992;28;20077;-79
2023/03/13 03:58:48;;;;;;;12.73;7.13;;;;;;;;;;6240790;28;20384;-79
2023/03/13 04:01:48;;;;;;;11.50;5.93;;;;;;;;;;6249133;28;20475;-79
2023/03/13 04:04:48;;;;;;;11.80;6.95;;;;;;;;;;6248380;28;20029;-80
2023/03/13 04:07:48;;;;;;;12.55;6.55;;;;;;;;;;6242661;28;20486;-79
2023/03/13 04:10:49;;;;;;;14.50;6.03;;;;;;;;;;6245079;28;20108;-79
2023/03/13 04:13:49;;;;;;;9.17;5.67;;;;;;;;;;6247177;28;20022;-79
2023/03/13 04:16:49;;;;;;;14.23;6.70;;;;;;;;;;6236740;28;20037;-78
2023/03/13 04:19:49;;;;;;;13.27;7.37;;;;;;;;;;6245750;28;20467;-79
2023/03/13 04:22:50;;;;;;;13.57;7.43;;;;;;;;;;6247611;28;20036;-79
2023/03/13 04:25:50;;;;;;;12.00;6.32;;;;;;;;;;6248134;28;20033;-79
2023/03/13 04:28:51;;;;;;;13.63;6.67;;;;;;;;;;6242157;28;20101;-79
2023/03/13 04:31:51;;;;;;;13.97;7.10;;;;;;;;;;6247463;28;20049;-80
2023/03/13 04:34:51;;;;;;;11.73;6.93;;;;;;;;;;6249341;28;20013;-78
2023/03/13 04:37:52;;;;;;;12.53;6.57;;;;;;;;;;6248405;28;20012;-78
2023/03/13 04:40:52;;;;;;;12.80;6.07;;;;;;;;;;6247393;28;20029;-78
2023/03/13 04:43:52;;;;;;;14.00;6.67;;;;;;;;;;6247736;28;20075;-78
2023/03/13 04:46:52;;;;;;;12.60;8.02;;;;;;;;;;6235869;28;20021;-79
2023/03/13 04:49:53;;;;;;;14.80;7.23;;;;;;;;;;6247526;28;20075;-79
2023/03/13 04:52:53;;;;;;;11.60;7.00;;;;;;;;;;6247244;28;20456;-78
2023/03/13 04:55:53;;;;;;;13.77;7.97;;;;;;;;;;6247461;28;20124;-79
2023/03/13 04:58:53;;;;;;;20.77;8.80;;;;;;;;;;6246604;28;20045;-78
2023/03/13 05:01:53;;;;;;;14.47;7.73;;;;;;;;;;6246478;28;20364;-78
2023/03/13 05:04:54;;;;;;;16.57;8.60;;;;;;;;;;6248669;28;20025;-79
2023/03/13 05:07:54;;;;;;;15.98;7.03;;;;;;;;;;6242699;28;20029;-79
2023/03/13 05:10:54;;;;;;;13.48;6.85;;;;;;;;;;6246881;28;20022;-79
2023/03/13 05:13:54;;;;;;;12.60;7.03;;;;;;;;;;6244079;28;20299;-79
2023/03/13 05:16:54;;;;;;;10.57;6.30;;;;;;;;;;6243977;28;20094;-79
2023/03/13 05:19:56;;;;;;;12.68;6.57;;;;;;;;;;6245311;28;20013;-79
2023/03/13 05:22:56;;;;;;;13.15;6.50;;;;;;;;;;6242536;28;20016;-78
2023/03/13 05:25:56;;;;;;;11.57;6.37;;;;;;;;;;6250193;28;20021;-79
2023/03/13 05:28:56;;;;;;;16.33;8.25;;;;;;;;;;6246839;28;20434;-79
2023/03/13 05:31:57;;;;;;;13.05;5.82;;;;;;;;;;6246555;28;20022;-79
2023/03/13 05:34:57;;;;;;;19.73;6.63;;;;;;;;;;6246446;28;20360;-79
2023/03/13 05:37:57;;;;;;;11.37;6.67;;;;;;;;;;6243498;28;20014;-80
2023/03/13 05:40:57;;;;;;;10.10;5.03;;;;;;;;;;6246401;28;20100;-80
2023/03/13 05:43:57;;;;;;;11.05;5.97;;;;;;;;;;6243334;28;20030;-80
2023/03/13 05:46:59;;;;;;;12.90;8.10;;;;;;;;;;6241516;28;20096;-79
2023/03/13 05:49:59;;;;;;;12.35;5.85;;;;;;;;;;6244319;28;20052;-79
2023/03/13 05:52:59;;;;;;;13.53;7.00;;;;;;;;;;6243179;28;20049;-79
2023/03/13 05:56:00;;;;;;;14.52;8.50;;;;;;;;;;6245054;28;20092;-79
2023/03/13 05:59:00;;;;;;;14.07;8.50;;;;;;;;;;6244608;28;20037;-79
2023/03/13 06:02:00;;;;;;;12.80;7.17;;;;;;;;;;6244697;28;20033;-81
2023/03/13 06:05:00;;;;;;;14.73;8.05;;;;;;;;;;6240691;28;20063;-80
2023/03/13 06:08:02;;;;;;;14.75;6.97;;;;;;;;;;6243337;28;20021;-80
2023/03/13 06:11:02;;;;;;;16.35;8.25;;;;;;;;;;6240557;28;20025;-80
2023/03/13 06:14:02;;;;;;;14.43;8.37;;;;;;;;;;6238286;28;20028;-79
2023/03/13 06:17:03;;;;;;;15.57;8.10;;;;;;;;;;6227847;28;20512;-80
2023/03/13 06:20:04;;;;;;;14.40;6.70;;;;;;;;;;6225444;28;20021;-79
2023/03/13 06:23:04;;;;;;;11.43;6.27;;;;;;;;;;6237279;28;20032;-80
2023/03/13 06:26:05;;;;;;;13.13;7.15;;;;;;;;;;6236713;28;20284;-79
2023/03/13 06:29:05;;;;;;;19.30;9.93;;;;;;;;;;6233047;28;20030;-79
2023/03/13 06:32:05;;;;;;;19.73;10.27;;;;;;;;;;6237149;28;20388;-79
2023/03/13 06:35:06;;;;;;;16.77;8.70;;;;;;;;;;6233833;28;20293;-79
2023/03/13 06:38:07;;;;;;;11.77;6.13;;;;;;;;;;6239907;28;20025;-79
2023/03/13 06:41:08;;;;;;;13.10;5.68;;;;;;;;;;6236526;28;20021;-78
2023/03/13 06:44:09;;;;;;;10.93;6.03;;;;;;;;;;6236977;28;20026;-78
2023/03/13 06:47:09;;;;;;;13.23;5.63;;;;;;;;;;6238154;28;20535;-78
2023/03/13 06:50:11;;;;;;;10.43;4.78;;;;;;;;;;6238811;28;20040;-79
2023/03/13 06:53:16;;;;;;;12.70;5.78;;;;;;;;;;6233962;28;20440;-80
2023/03/13 06:56:16;;;;;;;9.45;4.93;;;;;;;;;;6236442;28;20013;-79
2023/03/13 06:59:16;;;;;;;12.07;6.13;;;;;;;;;;6238744;28;20140;-79
2023/03/13 07:02:17;;;;;;;12.30;5.47;;;;;;;;;;6239283;28;20055;-79
2023/03/13 07:05:17;;;;;;;10.90;5.73;;;;;;;;;;6235519;28;20076;-79
2023/03/13 07:08:17;;;;;;;9.47;5.03;;;;;;;;;;6236192;28;20075;-79
2023/03/13 07:11:17;;;;;;;13.67;7.57;;;;;;;;;;6241210;28;20097;-79
2023/03/13 07:14:18;;;;;;;20.50;8.23;;;;;;;;;;6223235;28;20396;-77
2023/03/13 07:17:18;;;;;;;17.37;7.60;;;;;;;;;;6236976;28;20025;-78
2023/03/13 07:20:18;;;;;;;15.70;6.80;;;;;;;;;;6235015;28;20014;-78
2023/03/13 07:23:18;;;;;;;13.75;7.88;;;;;;;;;;6231599;28;20040;-79
2023/03/13 07:26:19;;;;;;;16.33;7.10;;;;;;;;;;6239137;28;20075;-78
2023/03/13 07:29:19;;;;;;;16.73;6.97;;;;;;;;;;6239661;28;20089;-80
2023/03/13 07:32:19;;;;;;;14.15;6.10;;;;;;;;;;6229781;28;20029;-80
2023/03/13 07:35:19;;;;;;;16.17;5.57;;;;;;;;;;6240202;28;20566;-79
2023/03/13 07:38:20;;;;;;;15.07;6.70;;;;;;;;;;6243487;28;20014;-79
2023/03/13 07:41:20;;;;;;;15.50;5.43;;;;;;;;;;6247617;28;20080;-80
2023/03/13 07:44:20;;;;;;;16.40;5.97;;;;;;;;;;6247881;28;20028;-80
2023/03/13 07:47:20;;;;;;;11.33;5.33;;;;;;;;;;6244121;28;20022;-79
2023/03/13 07:50:21;;;;;;;17.40;4.85;;;;;;;;;;6244432;28;20080;-79
2023/03/13 07:53:21;;;;;;;10.20;5.30;;;;;;;;;;6234926;28;20465;-80
2023/03/13 07:56:22;;;;;;;13.10;4.93;;;;;;;;;;6245206;28;20010;-79
2023/03/13 07:59:22;;;;;;;13.98;6.10;;;;;;;;;;6245970;28;20029;-79
2023/03/13 08:02:22;;;;;;;12.17;6.37;;;;;;;;;;6242385;28;20105;-79
2023/03/13 08:05:22;;;;;;;11.43;5.30;;;;;;;;;;6235229;28;20021;-80
2023/03/13 08:08:23;;;;;;;17.37;5.10;;;;;;;;;;6243605;28;20029;-80
2023/03/13 08:11:24;;;;;;;14.23;5.43;;;;;;;;;;6243641;28;20114;-79
2023/03/13 08:14:24;;;;;;;10.65;4.25;;;;;;;;;;6241738;28;20014;-80
2023/03/13 08:17:24;;;;;;;10.97;4.63;;;;;;;;;;6245474;28;20402;-79
2023/03/13 08:20:25;;;;;;;11.80;5.50;;;;;;;;;;6246810;28;20022;-78
2023/03/13 08:23:25;;;;;;;13.20;4.30;;;;;;;;;;6246159;28;20017;-78
2023/03/13 08:26:29;;;;;;;13.97;6.10;;;;;;;;;;6243455;28;20018;-80
2023/03/13 08:29:29;;;;;;;11.65;5.05;;;;;;;;;;6231861;28;20028;-79
2023/03/13 08:32:35;;;;;;;8.40;4.68;;;;;;;;;;6246326;28;20017;-80
2023/03/13 08:35:35;;;;;;;11.82;5.35;;;;;;;;;;6236351;28;20085;-79
2023/03/13 08:38:36;;;;;;;15.27;6.00;;;;;;;;;;6241587;28;20502;-77
2023/03/13 08:41:36;;;;;;;10.65;4.70;;;;;;;;;;6244668;28;20120;-79
2023/03/13 08:44:37;;;;;;;11.27;4.43;;;;;;;;;;6246133;28;20017;-80
2023/03/13 08:47:37;;;;;;;12.57;4.82;;;;;;;;;;6232839;28;20029;-79
2023/03/13 08:50:37;;;;;;;12.35;4.72;;;;;;;;;;6192484;28;1306052;-78
2023/03/13 08:53:38;;;;;;;10.27;4.07;;;;;;;;;;6243572;28;20054;-78
2023/03/13 08:56:39;;;;;;;11.70;5.77;;;;;;;;;;6237616;28;20434;-78
2023/03/13 08:59:39;;;;;;;;;;;;;;;;;;6237199;28;20021;-78
2023/03/13 09:02:40;;;;;;;12.93;4.97;;;;;;;;;;6244999;28;19971;-78
2023/03/13 09:05:40;;;;;;;10.30;5.03;;;;;;;;;;6246306;28;20052;-79
2023/03/13 09:08:41;;;;;;;11.73;4.80;;;;;;;;;;6249069;28;20041;-79
2023/03/13 09:11:41;;;;;;;9.93;4.67;;;;;;;;;;6244986;28;20395;-79
2023/03/13 09:14:41;;;;;;;14.20;5.40;;;;;;;;;;6246884;28;20049;-79
2023/03/13 09:17:41;;;;;;;12.43;4.68;;;;;;;;;;6240578;28;20013;-79
2023/03/13 09:20:42;;;;;;;9.43;4.50;;;;;;;;;;6229801;28;20060;-79
2023/03/13 09:23:42;;;;;;;11.07;5.20;;;;;;;;;;6235682;28;20014;-79
2023/03/13 09:26:43;;;;;;;13.03;4.13;;;;;;;;;;6232797;28;20418;-79
2023/03/13 09:29:43;;;;;;;13.23;4.43;;;;;;;;;;6237917;28;20092;-78
2023/03/13 09:32:43;;;;;;;9.60;3.60;;;;;;;;;;6245242;28;20025;-79
2023/03/13 09:35:49;;;;;;;16.03;4.70;;;;;;;;;;6239334;28;20101;-79
2023/03/13 09:38:50;;;;;;;11.23;4.15;;;;;;;;;;6239445;28;20018;-79
2023/03/13 09:42:01;;;;;;;10.30;4.25;;;;;;;;;;6228179;28;20514;-79
2023/03/13 09:45:07;;;;;;;8.38;4.15;;;;;;;;;;6245971;28;20021;-80
2023/03/13 09:48:30;;;;;;;8.60;4.13;;;;;;;;;;6243253;28;20028;-79
2023/03/13 09:51:35;;;;;;;8.10;4.22;;;;;;;;;;6226374;28;20408;-77
2023/03/13 09:54:40;;;;;;;10.35;5.18;;;;;;;;;;6248780;28;20021;-80
2023/03/13 09:57:45;;;;;;;12.25;3.88;;;;;;;;;;6241951;28;20487;-79
2023/03/13 10:00:51;;;;;;;11.00;4.18;;;;;;;;;;6245199;28;20029;-80
2023/03/13 10:04:01;;;;;;;13.73;4.70;;;;;;;;;;6225563;28;21394;-79
2023/03/13 10:07:01;;;;;;;12.55;3.75;;;;;;;;;;6241132;28;20499;-79
2023/03/13 10:10:03;;;;;;;11.47;5.13;;;;;;;;;;6241632;28;20027;-79
2023/03/13 10:13:12;;;;;;;18.80;5.07;;;;;;;;;;6242342;28;20422;-80
2023/03/13 10:16:27;;;;;;;7.22;3.20;;;;;;;;;;6240992;28;20025;-80
2023/03/13 10:19:36;;;;;;;10.27;3.75;;;;;;;;;;6244735;28;20017;-78
2023/03/13 10:22:37;;;;;;;11.07;3.42;;;;;;;;;;6243562;28;20452;-79
2023/03/13 10:25:38;;;;;;;7.27;3.50;;;;;;;;;;6228899;28;20087;-79
2023/03/13 10:28:38;;;;;;;8.00;2.67;;;;;;;;;;6229966;28;21808;-79
2023/03/13 10:31:38;;;;;;;8.10;3.10;;;;;;;;;;6234283;28;20074;-76
2023/03/13 10:34:44;;;;;;;9.37;3.03;;;;;;;;;;6235681;28;20048;-78
2023/03/13 10:37:45;;;;;;;7.88;2.55;;;;;;;;;;6239745;28;20104;-78
2023/03/13 10:41:04;;;;;;;10.63;2.90;;;;;;;;;;6228928;28;20518;-80
2023/03/13 10:44:07;;;;;;;9.48;2.95;;;;;;;;;;6230419;28;20637;-79
2023/03/13 10:47:10;;;;;;;7.10;2.67;;;;;;;;;;6241555;28;20060;-79
2023/03/13 10:50:19;;;;;;;11.27;3.03;;;;;;;;;;6243571;28;20096;-79
2023/03/13 10:53:22;;;;;;;12.82;2.80;;;;;;;;;;6238968;28;20046;-79
2023/03/13 10:56:28;;;;;;;6.10;2.55;;;;;;;;;;6240852;28;20104;-79
2023/03/13 10:59:30;;;;;;;9.68;2.97;;;;;;;;;;6235485;28;20029;-80
2023/03/13 11:02:30;;;;;;;7.65;2.40;;;;;;;;;;6244938;28;20136;-79
2023/03/13 11:05:32;;;;;;;2.23;1.33;;;;;;;;;;6222321;28;20506;-79
2023/03/13 11:08:33;;;;;;;9.73;3.03;;;;;;;;;;6235118;28;20491;-78
2023/03/13 11:12:03;;;;;;;8.70;2.78;;;;;;;;;;6241826;28;20033;-79
2023/03/13 11:15:11;;;;;;;11.18;2.80;;;;;;;;;;6227110;28;20026;-79
2023/03/13 11:18:18;;;;;;;10.00;2.83;;;;;;;;;;6227075;28;20511;-78
2023/03/13 11:21:48;;;;;;;9.18;3.50;;;;;;;;;;6238647;28;20025;-79
2023/03/13 11:24:55;;;;;;;6.65;2.70;;;;;;;;;;6181689;28;20060;-79
2023/03/13 11:27:55;;;;;;;11.88;3.10;;;;;;;;;;6239617;28;20083;-79
2023/03/13 11:31:10;;;;;;;6.15;2.92;;;;;;;;;;6241418;28;20025;-79
2023/03/13 11:34:29;;;;;;;14.25;3.55;;;;;;;;;;6243484;28;20099;-78
2023/03/13 11:37:31;;;;;;;15.20;4.15;;;;;;;;;;6239149;28;20029;-78
2023/03/13 11:40:43;;;;;;;7.85;2.13;;;;;;;;;;6239684;28;20069;-78
2023/03/13 11:43:44;;;;;;;;;;;;;;;;;;6236022;28;20507;-78
2023/03/13 11:46:52;;;;;;;12.23;3.15;;;;;;;;;;6236362;28;19909;-79
2023/03/13 11:49:55;;;;;;;10.63;2.60;;;;;;;;;;6242735;28;20022;-79
2023/03/13 11:52:55;;;;;;;6.00;2.45;;;;;;;;;;6234585;28;20062;-73
2023/03/13 11:55:55;;;;;;;12.38;2.92;;;;;;;;;;6237932;28;20018;-73
2023/03/13 11:59:14;;;;;;;9.65;2.33;;;;;;;;;;6242843;28;20542;-73
2023/03/13 12:02:23;;;;;;;8.35;2.70;;;;;;;;;;6241184;28;20392;-73
2023/03/13 12:05:24;;;;;;;9.23;3.03;;;;;;;;;;6239368;28;20032;-73
2023/03/13 12:08:46;;;;;;;8.50;2.75;;;;;;;;;;6241740;28;20033;-73
2023/03/13 12:11:52;;;;;;;6.88;2.58;;;;;;;;;;6242967;28;20040;-73
2023/03/13 12:14:58;;;;;;;7.50;2.80;;;;;;;;;;6247000;28;20079;-73
2023/03/13 12:18:01;;;;;;;8.88;2.63;;;;;;;;;;6243746;28;20387;-73
2023/03/13 12:21:11;;;;;;;5.13;2.63;;;;;;;;;;6245315;28;20021;-73
2023/03/13 12:24:26;;;;;;;9.55;3.25;;;;;;;;;;6240393;28;20029;-73
2023/03/13 12:27:32;;;;;;;9.70;2.60;;;;;;;;;;6244361;28;20024;-73
2023/03/13 12:30:38;;;;;;;5.50;2.15;;;;;;;;;;6247231;28;20755;-74
2023/03/13 12:33:47;;;;;;;5.90;3.03;;;;;;;;;;6246166;28;20483;-73
2023/03/13 12:36:51;;;;;;;6.43;3.05;;;;;;;;;;6240358;28;20076;-73
2023/03/13 12:40:10;;;;;;;6.97;2.70;;;;;;;;;;6243613;28;20018;-74
2023/03/13 12:43:17;;;;;;;4.28;2.20;;;;;;;;;;6240534;28;20018;-73
2023/03/13 12:46:30;;;;;;;6.15;2.65;;;;;;;;;;6245708;28;20491;-74
2023/03/13 12:49:46;;;;;;;6.05;2.00;;;;;;;;;;6237270;28;20032;-73
2023/03/13 12:53:01;;;;;;;5.03;2.33;;;;;;;;;;6245185;28;20038;-73
2023/03/13 12:56:04;;;;;;;7.05;3.13;;;;;;;;;;6243317;28;20028;-73
2023/03/13 12:59:07;;;;;;;6.93;3.33;;;;;;;;;;6244212;28;20498;-73
2023/03/13 13:02:15;;;;;;;6.50;2.65;;;;;;;;;;6239483;28;20067;-73
2023/03/13 13:05:19;;;;;;;6.10;2.95;;;;;;;;;;6243948;28;20479;-73
2023/03/13 13:08:23;;;;;;;8.20;3.70;;;;;;;;;;6242925;28;20021;-73
2023/03/13 13:11:32;;;;;;;5.13;2.88;;;;;;;;;;6244750;28;20022;-73
2023/03/13 13:14:54;;;;;;;5.63;2.47;;;;;;;;;;6244669;28;20032;-73
2023/03/13 13:18:05;;;;;;;9.20;3.47;;;;;;;;;;6245313;28;20021;-73
2023/03/13 13:21:14;;;;;;;13.80;3.67;;;;;;;;;;6246684;28;20025;-74
2023/03/13 13:24:33;;;;;;;10.48;3.70;;;;;;;;;;6225858;28;20109;-74
2023/03/13 13:27:36;;;;;;;15.32;5.40;;;;;;;;;;6243015;28;20028;-74
2023/03/13 13:30:36;;;;;;;12.07;5.60;;;;;;;;;;6246337;28;20379;-73
2023/03/13 13:33:37;;;;;;;9.37;3.60;;;;;;;;;;6242215;28;20025;-74
2023/03/13 13:36:41;;;;;;;7.80;2.87;;;;;;;;;;6246768;28;20029;-73
2023/03/13 13:39:51;;;;;;;7.45;3.13;;;;;;;;;;6238649;28;20022;-73
2023/03/13 13:42:52;;;;;;;11.68;3.95;;;;;;;;;;6243740;28;20443;-73
2023/03/13 13:45:58;;;;;;;8.52;3.40;;;;;;;;;;6245205;28;20020;-73
2023/03/13 13:49:07;;;;;;;8.00;3.53;;;;;;;;;;6245512;28;20038;-73
2023/03/13 13:52:07;;;;;;;6.78;4.03;;;;;;;;;;6239723;28;20532;-74
2023/03/13 13:55:26;;;;;;;8.83;3.53;;;;;;;;;;6236384;28;20025;-73
2023/03/13 13:58:28;;;;;;;9.82;4.05;;;;;;;;;;6228833;28;20017;-74
2023/03/13 14:01:29;;;;;;;11.48;5.13;;;;;;;;;;6233854;28;20021;-73
2023/03/13 14:04:49;;;;;;;9.60;4.20;;;;;;;;;;6235392;28;20545;-73
2023/03/13 14:07:55;;;;;;;7.20;3.30;;;;;;;;;;6229921;28;20600;-73
2023/03/13 14:11:14;;;;;;;9.38;3.47;;;;;;;;;;6238236;28;20415;-73
2023/03/13 14:14:20;;;;;;;5.97;3.05;;;;;;;;;;6244336;28;20124;-73
2023/03/13 14:17:20;;;;;;;9.50;3.72;;;;;;;;;;6237133;28;20479;-73
2023/03/13 14:20:21;;;;;;;11.93;3.83;;;;;;;;;;6241311;28;20042;-73
2023/03/13 14:23:28;;;;;;;8.97;4.20;;;;;;;;;;6236421;28;20056;-73
2023/03/13 14:26:30;;;;;;;7.75;4.53;;;;;;;;;;6242242;28;20026;-73
2023/03/13 14:29:31;;;;;;;9.40;4.93;;;;;;;;;;6244207;28;20067;-73
2023/03/13 14:32:31;;;;;;;9.65;5.50;;;;;;;;;;6238919;28;20060;-73
2023/03/13 14:35:32;;;;;;;15.37;6.73;;;;;;;;;;6237059;28;20037;-73
2023/03/13 14:38:32;;;;;;;17.13;6.47;;;;;;;;;;6244084;28;20108;-74
2023/03/13 14:41:41;;;;;;;10.50;4.90;;;;;;;;;;6240267;28;20048;-74
2023/03/13 14:44:44;;;;;;;19.08;9.13;;;;;;;;;;6239677;28;20033;-74
2023/03/13 14:47:44;;;;;;;19.45;10.02;;;;;;;;;;6238088;28;20483;-74
2023/03/13 14:50:45;;;;;;;23.63;9.57;;;;;;;;;;6237703;28;20094;-74
2023/03/13 14:54:00;;;;;;;14.57;8.10;;;;;;;;;;6244244;28;20026;-73
2023/03/13 14:57:02;;;;;;;8.40;4.97;;;;;;;;;;6244005;28;20076;-73
2023/03/13 15:00:21;;;;;;;22.88;9.00;;;;;;;;;;6242293;28;20031;-73
2023/03/13 15:03:24;;;;;;;27.58;13.15;;;;;;;;;;6241308;28;20071;-73
2023/03/13 15:06:25;;;;;;;10.82;5.22;;;;;;;;;;6235963;28;20068;-73
2023/03/13 15:09:25;;;;;;;11.80;5.80;;;;;;;;;;6243514;28;20025;-73
2023/03/13 15:12:26;;;;;;;17.50;8.00;;;;;;;;;;6241711;28;20034;-73
2023/03/13 15:15:26;;;;;;;15.57;6.07;;;;;;;;;;6242934;28;20048;-73
2023/03/13 15:18:31;;;;;;;13.30;6.77;;;;;;;;;;6239686;28;20100;-73
2023/03/13 15:21:32;;;;;;;15.65;7.90;;;;;;;;;;6242795;28;20018;-73
2023/03/13 15:24:32;;;;;;;14.32;6.78;;;;;;;;;;6241636;28;20354;-73
2023/03/13 15:27:33;;;;;;;14.60;7.70;;;;;;;;;;6240479;28;20929;-72
2023/03/13 15:30:33;;;;;;;16.47;7.23;;;;;;;;;;6239164;28;20097;-72
2023/03/13 15:33:33;;;;;;;12.70;6.50;;;;;;;;;;6237349;28;20026;-72
2023/03/13 15:36:34;;;;;;;11.93;5.90;;;;;;;;;;6235127;28;20109;-72
2023/03/13 15:39:34;;;;;;;10.83;5.77;;;;;;;;;;6241869;28;20037;-72
2023/03/13 15:42:34;;;;;;;6.80;4.60;;;;;;;;;;6243477;28;20471;-73
2023/03/13 15:45:36;;;;;;;12.93;5.80;;;;;;;;;;6235777;28;20029;-72
2023/03/13 15:48:37;;;;;;;12.50;6.88;;;;;;;;;;6242931;28;20017;-73
2023/03/13 15:51:37;;;;;;;13.47;6.77;;;;;;;;;;6230365;28;20111;-73
2023/03/13 15:54:39;;;;;;;9.97;5.13;;;;;;;;;;6219286;28;20395;-73
2023/03/13 15:57:42;;;;;;;10.52;5.57;;;;;;;;;;6242510;28;20479;-73
2023/03/13 16:00:43;;;;;;;10.98;5.15;;;;;;;;;;6241429;28;20087;-73
2023/03/13 16:03:43;;;;;;;12.63;5.53;;;;;;;;;;6241697;28;20018;-73
2023/03/13 16:06:43;;;;;;;12.77;6.80;;;;;;;;;;6243459;28;20260;-73
2023/03/13 16:09:44;;;;;;;12.93;6.83;;;;;;;;;;6239517;28;20471;-73
2023/03/13 16:12:44;;;;;;;14.97;7.93;;;;;;;;;;6242531;28;20483;-73
2023/03/13 16:15:44;;;;;;;15.63;7.27;;;;;;;;;;6240006;28;20018;-73
2023/03/13 16:18:45;;;;;;;15.43;8.77;;;;;;;;;;6244467;28;20056;-73
2023/03/13 16:21:47;;;;;;;17.57;9.33;;;;;;;;;;6244801;28;20017;-73
2023/03/13 16:24:47;;;;;;;13.90;5.72;;;;;;;;;;6241150;28;20032;-73
2023/03/13 16:27:47;;;;;;;15.70;7.22;;;;;;;;;;6246911;28;20017;-73
2023/03/13 16:30:48;;;;;;;20.63;9.53;;;;;;;;;;6242121;28;20060;-73
2023/03/13 16:33:49;;;;;;;17.23;9.07;;;;;;;;;;6237280;28;20113;-73
2023/03/13 16:36:49;;;;;;;31.25;15.95;;;;;;;;;;6239127;28;20045;-73
2023/03/13 16:39:50;;;;;;;26.53;11.90;;;;;;;;;;6243559;28;20071;-73
2023/03/13 16:42:50;;;;;;;33.30;18.73;;;;;;;;;;6235388;28;20549;-73
2023/03/13 16:45:50;;;;;;;10.77;5.33;;;;;;;;;;6235233;28;20029;-73
2023/03/13 16:48:51;;;;;;;18.90;8.57;;;;;;;;;;6241371;28;20014;-73
2023/03/13 16:51:51;;;;;;;24.37;12.97;;;;;;;;;;6237536;28;20128;-73
2023/03/13 16:54:51;;;;;;;20.53;10.50;;;;;;;;;;6240418;28;20020;-73
2023/03/13 16:57:53;;;;;;;12.37;5.60;;;;;;;;;;6241181;28;20088;-73
2023/03/13 17:00:53;;;;;;;;;;;;;;;;;;6241338;28;20024;-73
2023/03/13 17:03:54;;;;;;;10.10;5.18;;;;;;;;;;6219555;28;19913;-73
2023/03/13 17:06:55;;;;;;;12.80;5.90;;;;;;;;;;6231676;28;20025;-73
2023/03/13 17:09:55;;;;;;;8.57;5.10;;;;;;;;;;6238052;28;20486;-73
2023/03/13 17:12:55;;;;;;;10.27;4.88;;;;;;;;;;6234018;28;20021;-73
2023/03/13 17:15:56;;;;;;;15.83;5.90;;;;;;;;;;6229617;28;20085;-72
2023/03/13 17:18:57;;;;;;;11.00;4.93;;;;;;;;;;6224032;28;20053;-73
2023/03/13 17:21:57;;;;;;;14.45;6.50;;;;;;;;;;6232008;28;20258;-73
2023/03/13 17:24:59;;;;;;;14.93;6.90;;;;;;;;;;6213148;28;20149;-73
2023/03/13 17:27:59;;;;;;;15.05;7.60;;;;;;;;;;6232190;28;20079;-73
2023/03/13 17:30:59;;;;;;;20.13;7.22;;;;;;;;;;6236955;28;20025;-73
2023/03/13 17:34:00;;;;;;;13.50;7.05;;;;;;;;;;6246078;28;20096;-73
2023/03/13 17:37:03;;;;;;;10.18;6.65;;;;;;;;;;6245552;28;20029;-73
2023/03/13 17:40:22;;;;;;;14.10;8.00;;;;;;;;;;6246716;28;20021;-73
2023/03/13 17:43:24;;;;;;;14.88;7.18;;;;;;;;;;6245357;28;20017;-73
2023/03/13 17:46:29;;;;;;;13.68;6.38;;;;;;;;;;6235441;28;20067;-73
2023/03/13 17:49:34;;;;;;;12.48;5.93;;;;;;;;;;6246605;28;20014;-73
2023/03/13 17:52:35;;;;;;;11.60;6.20;;;;;;;;;;6240033;28;20033;-73
2023/03/13 17:55:35;;;;;;;11.80;6.28;;;;;;;;;;6244784;28;20420;-73
2023/03/13 17:58:35;;;;;;;12.67;6.53;;;;;;;;;;6235282;28;20014;-73
2023/03/13 18:01:35;;;;;;;15.15;7.50;;;;;;;;;;6245131;28;20522;-73
2023/03/13 18:04:35;;;;;;;14.87;6.33;;;;;;;;;;6247078;28;20021;-73